Time;durP1;ratioP1;P1;durP2;ratioP2;P2;SDS_P1;SDS_P2;PMS_P1;PMS_P2;Temp;Humidity;BMP_temperature;BMP_pressure;BME280_temperature;BME280_humidity;BME280_pressure;Samples;Min_cycle;Max_cycle;Signal;HPM_P1;HPM_P2
2022/04/19 00:00:12;;;;;;;6.50;2.93;;;7.70;90.40;;;;;;4979479;28;20208;-64
2022/04/19 00:02:38;;;;;;;6.17;2.90;;;7.60;90.80;;;;;;4980467;28;20740;-66
2022/04/19 00:05:06;;;;;;;5.57;2.73;;;7.60;91.60;;;;;;4979781;28;20204;-64
2022/04/19 00:07:33;;;;;;;8.17;3.03;;;7.60;91.80;;;;;;4979219;28;20205;-64
2022/04/19 00:10:00;;;;;;;5.57;2.93;;;7.60;92.20;;;;;;4979971;28;20204;-65
2022/04/19 00:12:27;;;;;;;3.23;2.70;;;7.50;92.60;;;;;;4980202;28;20252;-63
2022/04/19 00:14:55;;;;;;;3.60;2.40;;;7.40;93.10;;;;;;4979233;28;20283;-64
2022/04/19 00:17:22;;;;;;;3.70;2.80;;;7.50;93.80;;;;;;4979186;28;20283;-64
2022/04/19 00:19:49;;;;;;;3.47;2.50;;;7.40;94.30;;;;;;4978929;28;20231;-63
2022/04/19 00:22:17;;;;;;;4.63;2.47;;;7.50;94.90;;;;;;4979294;28;20244;-63
2022/04/19 00:24:44;;;;;;;3.47;2.83;;;7.50;95.50;;;;;;4967303;28;20276;-64
2022/04/19 00:27:11;;;;;;;4.27;2.63;;;7.50;96.30;;;;;;4960791;29;20233;-65
2022/04/19 00:29:41;;;;;;;7.97;3.10;;;7.40;96.80;;;;;;4961513;29;20233;-65
2022/04/19 00:32:10;;;;;;;3.43;2.60;;;7.40;97.50;;;;;;4961524;28;20309;-65
2022/04/19 00:34:38;;;;;;;4.67;2.83;;;7.40;98.30;;;;;;4961462;29;20205;-64
2022/04/19 00:37:05;;;;;;;5.77;2.97;;;7.30;98.90;;;;;;4962494;29;20216;-64
2022/04/19 00:39:33;;;;;;;3.73;2.73;;;7.20;99.80;;;;;;4962031;29;20328;-65
2022/04/19 00:42:00;;;;;;;3.00;2.63;;;7.10;99.90;;;;;;4961472;29;20687;-65
2022/04/19 00:44:27;;;;;;;5.40;2.87;;;7.00;99.90;;;;;;4960969;29;20221;-65
2022/04/19 00:46:54;;;;;;;5.17;2.40;;;7.00;99.90;;;;;;4960761;29;20251;-65
2022/04/19 00:49:22;;;;;;;3.13;2.40;;;6.90;99.90;;;;;;4960820;29;20301;-65
2022/04/19 00:51:49;;;;;;;2.97;2.03;;;6.80;99.90;;;;;;4959032;29;20647;-64
2022/04/19 00:54:18;;;;;;;4.30;2.13;;;6.70;99.90;;;;;;4958777;28;20265;-64
2022/04/19 00:56:46;;;;;;;3.50;2.50;;;6.60;99.90;;;;;;4958919;29;20205;-63
2022/04/19 00:59:13;;;;;;;3.70;2.50;;;6.40;99.90;;;;;;4958373;29;20264;-64
2022/04/19 01:01:40;;;;;;;2.40;1.90;;;6.40;99.90;;;;;;4958748;29;20205;-63
2022/04/19 01:04:07;;;;;;;4.13;2.40;;;6.30;99.90;;;;;;4958471;29;20215;-64
2022/04/19 01:06:35;;;;;;;2.90;2.30;;;6.20;99.90;;;;;;4958715;29;20320;-64
2022/04/19 01:09:03;;;;;;;1.97;1.57;;;6.20;99.90;;;;;;4958360;29;20702;-64
2022/04/19 01:14:14;;;;;;;2.17;1.77;;;6.10;99.90;;;;;;4958489;29;20272;-66
2022/04/19 01:16:41;;;;;;;2.77;2.23;;;6.10;99.90;;;;;;4958279;29;20251;-64
2022/04/19 01:19:14;;;;;;;3.10;2.17;;;6.10;99.90;;;;;;4958513;29;20217;-64
2022/04/19 01:21:46;;;;;;;3.90;2.47;;;6.00;99.90;;;;;;4957864;29;20228;-65
2022/04/19 01:24:18;;;;;;;3.90;2.13;;;6.10;99.90;;;;;;4958334;28;20825;-64
2022/04/19 01:26:45;;;;;;;2.33;1.90;;;6.00;99.90;;;;;;4957935;28;20209;-64
2022/04/19 01:29:13;;;;;;;5.73;2.30;;;6.10;99.90;;;;;;4958010;29;20197;-64
2022/04/19 01:31:41;;;;;;;3.23;2.73;;;6.00;99.90;;;;;;4958322;29;20229;-63
2022/04/19 01:34:08;;;;;;;4.00;2.70;;;6.00;99.90;;;;;;4958450;29;20197;-64
2022/04/19 01:36:36;;;;;;;3.73;2.67;;;6.00;99.90;;;;;;4958719;29;20205;-65
2022/04/19 01:39:05;;;;;;;3.93;2.90;;;6.00;99.90;;;;;;4957978;29;20570;-64
2022/04/19 01:41:32;;;;;;;5.90;3.10;;;6.00;99.90;;;;;;4956727;28;20222;-65
2022/04/19 01:43:59;;;;;;;4.93;3.40;;;6.00;99.90;;;;;;4956962;29;20209;-64
2022/04/19 01:46:26;;;;;;;5.80;3.60;;;6.00;99.90;;;;;;4957301;29;20204;-64
2022/04/19 01:48:54;;;;;;;7.77;3.60;;;5.90;99.90;;;;;;4957257;29;20252;-64
2022/04/19 01:51:22;;;;;;;7.07;3.60;;;5.80;99.90;;;;;;4957316;29;20320;-64
2022/04/19 01:53:49;;;;;;;4.53;3.53;;;5.70;99.90;;;;;;4963490;28;20205;-64
2022/04/19 01:56:18;;;;;;;6.13;3.43;;;5.60;99.90;;;;;;4976518;28;20234;-65
2022/04/19 01:58:45;;;;;;;4.33;3.67;;;5.60;99.90;;;;;;4976689;28;20564;-64
2022/04/19 02:01:12;;;;;;;6.90;3.67;;;5.50;99.90;;;;;;4975985;28;20206;-65
2022/04/19 02:03:39;;;;;;;5.40;3.47;;;5.50;99.90;;;;;;4976556;28;20283;-63
2022/04/19 02:06:08;;;;;;;7.77;3.47;;;5.50;99.90;;;;;;4976690;28;20291;-64
2022/04/19 02:08:35;;;;;;;6.00;3.80;;;5.50;99.90;;;;;;4976896;28;20228;-64
2022/04/19 02:11:02;;;;;;;6.73;3.63;;;5.50;99.90;;;;;;4977795;28;20360;-64
2022/04/19 02:13:31;;;;;;;4.07;3.20;;;5.50;99.90;;;;;;4975942;28;20315;-65
2022/04/19 02:15:58;;;;;;;5.10;3.23;;;5.50;99.90;;;;;;4975181;28;20203;-64
2022/04/19 02:18:25;;;;;;;4.00;3.27;;;5.50;99.90;;;;;;4976250;28;20208;-63
2022/04/19 02:20:52;;;;;;;4.10;3.40;;;5.50;99.90;;;;;;4976231;28;20224;-65
2022/04/19 02:23:19;;;;;;;8.97;3.63;;;5.50;99.90;;;;;;4974924;28;20357;-63
2022/04/19 02:25:47;;;;;;;5.30;3.63;;;5.50;99.90;;;;;;4975778;28;20209;-65
2022/04/19 02:28:14;;;;;;;6.20;3.57;;;5.50;99.90;;;;;;4975610;28;20244;-65
2022/04/19 02:30:43;;;;;;;4.60;3.20;;;5.50;99.90;;;;;;4975717;28;20218;-64
2022/04/19 02:33:09;;;;;;;6.03;3.90;;;5.50;99.90;;;;;;4975979;28;20603;-64
2022/04/19 02:35:37;;;;;;;6.53;3.40;;;5.50;99.90;;;;;;4975802;28;20240;-64
2022/04/19 02:38:04;;;;;;;4.67;3.43;;;5.50;99.90;;;;;;4975896;28;20201;-63
2022/04/19 02:40:31;;;;;;;5.47;3.13;;;5.60;99.90;;;;;;4975830;28;20607;-63
2022/04/19 02:42:58;;;;;;;4.17;2.77;;;5.60;99.90;;;;;;4976229;28;20639;-64
2022/04/19 02:45:26;;;;;;;3.50;3.00;;;5.60;99.90;;;;;;4961043;28;20233;-64
2022/04/19 02:48:05;;;;;;;6.83;3.37;;;5.60;99.90;;;;;;4956117;29;20211;-63
2022/04/19 02:50:33;;;;;;;3.80;2.77;;;5.70;99.90;;;;;;4956721;29;20617;-64
2022/04/19 02:53:01;;;;;;;4.23;3.20;;;5.70;99.90;;;;;;4957031;28;20229;-63
2022/04/19 02:55:28;;;;;;;3.60;2.87;;;5.70;99.90;;;;;;4962722;28;20737;-63
2022/04/19 02:57:55;;;;;;;3.73;3.03;;;5.70;99.90;;;;;;4962665;29;20300;-64
2022/04/19 03:00:23;;;;;;;3.50;2.47;;;5.70;99.90;;;;;;4963453;29;20208;-64
2022/04/19 03:02:50;;;;;;;4.00;3.13;;;5.70;99.90;;;;;;4962503;29;20205;-63
2022/04/19 03:05:19;;;;;;;3.23;2.40;;;5.80;99.90;;;;;;4962801;28;20216;-64
2022/04/19 03:07:46;;;;;;;3.70;2.67;;;5.70;99.90;;;;;;4962711;29;20689;-64
2022/04/19 03:10:14;;;;;;;4.47;2.57;;;5.70;99.90;;;;;;4963199;28;20209;-65
2022/04/19 03:12:41;;;;;;;3.37;2.40;;;5.70;99.90;;;;;;4963059;28;20235;-64
2022/04/19 03:15:10;;;;;;;3.97;2.60;;;5.70;99.90;;;;;;4977924;28;20291;-65
2022/04/19 03:17:36;;;;;;;5.10;3.00;;;5.60;99.90;;;;;;4981987;28;20276;-65
2022/04/19 03:20:07;;;;;;;3.97;2.80;;;5.60;99.90;;;;;;4982423;28;20209;-64
2022/04/19 03:28:01;;;;;;;4.03;2.40;;;5.60;99.90;;;;;;4982376;28;20192;-64
2022/04/19 03:30:29;;;;;;;4.17;2.40;;;5.60;99.90;;;;;;4981746;28;20212;-64
2022/04/19 03:32:56;;;;;;;3.83;2.80;;;5.50;99.90;;;;;;4981606;28;20228;-64
2022/04/19 03:35:23;;;;;;;5.20;3.27;;;5.50;99.90;;;;;;4982273;28;20572;-65
2022/04/19 03:37:51;;;;;;;5.07;3.73;;;5.50;99.90;;;;;;4982032;28;20204;-65
2022/04/19 03:40:18;;;;;;;5.77;4.03;;;5.40;99.90;;;;;;4981851;28;20600;-64
2022/04/19 03:42:45;;;;;;;4.20;3.80;;;5.30;99.90;;;;;;4981376;28;20232;-64
2022/04/19 03:45:13;;;;;;;4.80;4.30;;;5.30;99.90;;;;;;4978509;28;20291;-64
2022/04/19 03:47:40;;;;;;;7.63;4.53;;;5.30;99.90;;;;;;4981548;28;20292;-63
2022/04/19 03:50:08;;;;;;;4.13;3.73;;;5.20;99.90;;;;;;4981007;28;20204;-64
2022/04/19 03:52:36;;;;;;;4.40;4.00;;;5.20;99.90;;;;;;4981192;28;20235;-64
2022/04/19 03:55:05;;;;;;;5.57;3.97;;;5.20;99.90;;;;;;4981372;28;20208;-63
2022/04/19 03:57:32;;;;;;;7.77;4.90;;;5.20;99.90;;;;;;4981550;28;20209;-64
2022/04/19 03:59:59;;;;;;;4.73;3.93;;;5.20;99.90;;;;;;4981302;28;20208;-63
2022/04/19 04:02:26;;;;;;;4.83;4.23;;;5.10;99.90;;;;;;4981142;28;20273;-63
2022/04/19 04:04:53;;;;;;;6.40;4.53;;;5.10;99.90;;;;;;4979956;28;20243;-65
2022/04/19 04:07:20;;;;;;;4.97;4.30;;;5.10;99.90;;;;;;4978221;28;20291;-64
2022/04/19 04:09:49;;;;;;;5.00;4.30;;;5.00;99.90;;;;;;4978221;28;20206;-64
2022/04/19 04:12:17;;;;;;;7.03;4.83;;;5.00;99.90;;;;;;4974222;28;20224;-65
2022/04/19 04:14:44;;;;;;;7.00;4.80;;;4.90;99.90;;;;;;4978955;28;20617;-64
2022/04/19 04:17:11;;;;;;;4.37;3.97;;;4.80;99.90;;;;;;4979061;28;20212;-65
2022/04/19 04:19:38;;;;;;;6.33;4.10;;;4.70;99.90;;;;;;4978677;28;20569;-64
2022/04/19 04:22:06;;;;;;;6.23;4.27;;;4.70;99.90;;;;;;4978698;28;20217;-63
2022/04/19 04:24:33;;;;;;;4.53;4.10;;;4.60;99.90;;;;;;4978319;28;20219;-65
2022/04/19 04:27:00;;;;;;;4.73;4.10;;;4.60;99.90;;;;;;4978555;28;20635;-64
2022/04/19 04:29:28;;;;;;;5.00;3.97;;;4.50;99.90;;;;;;4978238;28;20676;-64
2022/04/19 04:31:55;;;;;;;4.10;3.70;;;4.40;99.90;;;;;;4978554;28;20212;-64
2022/04/19 04:34:22;;;;;;;4.97;4.23;;;4.30;99.90;;;;;;4978633;28;20205;-65
2022/04/19 04:36:49;;;;;;;5.40;4.57;;;4.20;99.90;;;;;;4978504;28;20298;-63
2022/04/19 04:39:16;;;;;;;4.77;4.20;;;4.10;99.90;;;;;;4977386;28;20296;-64
2022/04/19 04:41:45;;;;;;;7.27;4.30;;;4.00;99.90;;;;;;4978337;28;20284;-64
2022/04/19 04:44:11;;;;;;;4.63;4.00;;;4.00;99.90;;;;;;4978087;28;20213;-64
2022/04/19 04:49:36;;;;;;;4.83;4.00;;;3.90;99.90;;;;;;4978288;28;20320;-65
2022/04/19 04:52:04;;;;;;;6.03;4.27;;;3.80;99.90;;;;;;4977817;28;20283;-64
2022/04/19 04:54:31;;;;;;;4.23;3.83;;;3.70;99.90;;;;;;4977880;28;20263;-64
2022/04/19 04:56:58;;;;;;;5.10;3.40;;;3.70;99.90;;;;;;4978377;28;20628;-66
2022/04/19 04:59:24;;;;;;;4.50;3.33;;;3.70;99.90;;;;;;4978128;28;20633;-64
2022/04/19 05:01:53;;;;;;;4.27;3.20;;;3.80;99.90;;;;;;4978422;28;20207;-64
2022/04/19 05:04:19;;;;;;;4.87;2.87;;;3.80;99.90;;;;;;4977874;28;20292;-64
2022/04/19 05:06:46;;;;;;;3.87;3.33;;;3.70;99.90;;;;;;4977570;28;20272;-64
2022/04/19 05:09:13;;;;;;;5.27;2.73;;;3.80;99.90;;;;;;4977631;28;20205;-64
2022/04/19 05:11:40;;;;;;;3.27;2.60;;;3.80;99.90;;;;;;4975828;28;20233;-63
2022/04/19 05:14:08;;;;;;;4.13;3.10;;;3.80;99.90;;;;;;4957943;29;20276;-64
2022/04/19 05:16:35;;;;;;;2.93;2.53;;;3.80;99.90;;;;;;4958369;28;20205;-63
2022/04/19 05:19:04;;;;;;;2.87;2.63;;;3.70;99.90;;;;;;4958505;29;20213;-64
2022/04/19 05:21:31;;;;;;;3.67;2.80;;;3.70;99.90;;;;;;4958809;29;20226;-64
2022/04/19 05:23:58;;;;;;;3.00;2.70;;;3.70;99.90;;;;;;4958801;29;20292;-64
2022/04/19 05:26:28;;;;;;;2.80;2.57;;;3.60;99.90;;;;;;4958187;29;20216;-64
2022/04/19 05:28:55;;;;;;;3.37;2.53;;;3.70;99.90;;;;;;4958539;29;20206;-65
2022/04/19 05:31:22;;;;;;;2.83;2.50;;;3.70;99.90;;;;;;4958117;29;20239;-64
2022/04/19 05:33:48;;;;;;;2.80;2.53;;;3.80;99.90;;;;;;4958249;29;20288;-64
2022/04/19 05:36:17;;;;;;;2.50;2.30;;;3.70;99.90;;;;;;4958702;29;20244;-65
2022/04/19 05:38:44;;;;;;;2.40;2.20;;;3.80;99.90;;;;;;4958150;29;20202;-64
2022/04/19 05:41:11;;;;;;;3.00;2.70;;;3.90;99.90;;;;;;4958772;29;20323;-64
2022/04/19 05:43:38;;;;;;;3.20;2.90;;;3.90;99.90;;;;;;4958589;28;20201;-64
2022/04/19 05:46:05;;;;;;;3.50;3.07;;;3.90;99.90;;;;;;4958129;29;20296;-63
2022/04/19 05:48:31;;;;;;;3.47;3.17;;;4.00;99.90;;;;;;4958340;29;20581;-64
2022/04/19 05:50:58;;;;;;;4.00;3.37;;;3.90;99.90;;;;;;4957883;29;20606;-64
2022/04/19 05:53:26;;;;;;;4.77;3.57;;;4.00;99.90;;;;;;4957839;29;20315;-64
2022/04/19 05:55:54;;;;;;;5.17;3.83;;;4.00;99.90;;;;;;4957861;29;20245;-65
2022/04/19 05:58:21;;;;;;;5.27;4.03;;;4.10;99.90;;;;;;4957985;29;20729;-64
2022/04/19 06:00:47;;;;;;;4.70;4.30;;;4.00;99.90;;;;;;4958405;29;20209;-64
2022/04/19 06:05:59;;;;;;;4.30;3.93;;;4.00;99.90;;;;;;4957455;29;20188;-64
2022/04/19 06:08:27;;;;;;;5.87;4.90;;;3.90;99.90;;;;;;4957904;29;20213;-64
2022/04/19 06:10:54;;;;;;;5.60;4.17;;;4.00;99.90;;;;;;4957968;29;20210;-63
2022/04/19 06:13:20;;;;;;;4.90;4.40;;;4.00;99.90;;;;;;4957313;28;20691;-62
2022/04/19 06:15:47;;;;;;;4.70;4.20;;;4.00;99.90;;;;;;4958122;29;20710;-63
2022/04/19 06:18:14;;;;;;;3.90;3.50;;;4.00;99.90;;;;;;4957252;29;20705;-63
2022/04/19 06:20:41;;;;;;;4.10;3.70;;;4.00;99.90;;;;;;4957169;29;20292;-64
2022/04/19 06:23:08;;;;;;;4.00;3.63;;;4.00;99.90;;;;;;4958114;29;20292;-64
2022/04/19 06:25:37;;;;;;;2.93;2.73;;;4.20;99.90;;;;;;4957146;29;20209;-64
2022/04/19 06:28:04;;;;;;;4.27;3.17;;;4.00;99.90;;;;;;4957683;28;20313;-63
2022/04/19 06:30:31;;;;;;;4.77;3.27;;;4.00;99.90;;;;;;4957181;29;20202;-64
2022/04/19 06:32:58;;;;;;;3.33;3.03;;;4.00;99.90;;;;;;4958602;29;20262;-63
2022/04/19 06:35:24;;;;;;;5.10;3.03;;;4.00;99.90;;;;;;4958578;29;20209;-64
2022/04/19 06:37:52;;;;;;;3.47;3.17;;;4.10;99.90;;;;;;4959276;29;20237;-65
2022/04/19 06:40:19;;;;;;;4.03;3.63;;;4.10;99.90;;;;;;4966736;28;20674;-64
2022/04/19 06:42:48;;;;;;;3.30;3.00;;;4.20;99.90;;;;;;4979137;28;20616;-65
2022/04/19 06:45:16;;;;;;;3.43;2.90;;;4.30;99.90;;;;;;4979274;28;20208;-65
2022/04/19 06:47:42;;;;;;;3.53;3.13;;;4.30;99.90;;;;;;4978078;28;20220;-64
2022/04/19 06:50:10;;;;;;;6.13;2.87;;;4.40;99.90;;;;;;4978950;28;20204;-64
2022/04/19 06:52:37;;;;;;;2.60;2.40;;;4.40;99.90;;;;;;4978940;28;20576;-64
2022/04/19 06:55:04;;;;;;;2.60;2.40;;;4.50;99.90;;;;;;4977212;28;20291;-67
2022/04/19 06:57:39;;;;;;;2.43;2.23;;;4.50;99.90;;;;;;4980842;28;20698;-65
2022/04/19 07:00:08;;;;;;;2.83;2.63;;;4.50;99.90;;;;;;4978103;28;20223;-64
2022/04/19 07:02:36;;;;;;;3.20;2.90;;;4.50;99.90;;;;;;4977633;28;20211;-64
2022/04/19 07:05:03;;;;;;;2.40;2.20;;;4.50;99.90;;;;;;4978963;28;20201;-65
2022/04/19 07:07:30;;;;;;;3.87;2.77;;;4.60;99.90;;;;;;4978919;28;20212;-64
2022/04/19 07:09:57;;;;;;;3.40;3.00;;;4.60;99.90;;;;;;4967141;28;20201;-65
2022/04/19 07:12:24;;;;;;;3.87;3.07;;;4.60;99.90;;;;;;4957702;29;20271;-65
2022/04/19 07:14:51;;;;;;;4.07;2.87;;;4.60;99.90;;;;;;4958557;29;20597;-64
2022/04/19 07:17:19;;;;;;;2.73;2.53;;;4.60;99.90;;;;;;4957600;29;20204;-64
2022/04/19 07:28:05;;;;;;;3.33;2.93;;;5.00;99.90;;;;;;4958693;29;20188;-64
2022/04/19 07:30:32;;;;;;;3.10;2.90;;;5.10;99.90;;;;;;4956768;29;20237;-66
2022/04/19 07:33:02;;;;;;;3.43;3.07;;;5.20;99.90;;;;;;4957590;29;20569;-65
2022/04/19 07:35:29;;;;;;;3.47;2.90;;;5.40;99.90;;;;;;4958203;29;20648;-64
2022/04/19 07:37:56;;;;;;;4.23;3.17;;;5.50;99.90;;;;;;4957981;29;20313;-64
2022/04/19 07:40:23;;;;;;;2.83;2.63;;;5.50;99.90;;;;;;4973595;28;20737;-64
2022/04/19 07:42:50;;;;;;;3.17;2.87;;;5.40;99.90;;;;;;4980839;28;20530;-65
2022/04/19 07:45:17;;;;;;;5.07;3.20;;;5.40;99.90;;;;;;4980855;28;20204;-64
2022/04/19 07:47:44;;;;;;;3.07;2.80;;;5.40;99.90;;;;;;4979318;28;20741;-64
2022/04/19 07:50:12;;;;;;;3.60;3.20;;;5.40;99.90;;;;;;4974943;28;20272;-64
2022/04/19 07:52:39;;;;;;;3.10;2.80;;;5.40;99.90;;;;;;4978960;28;20244;-65
2022/04/19 07:55:07;;;;;;;3.80;2.60;;;5.40;99.90;;;;;;4979767;28;20283;-65
2022/04/19 07:57:34;;;;;;;3.87;2.90;;;5.50;99.90;;;;;;4979284;28;20619;-65
2022/04/19 08:00:01;;;;;;;3.17;2.77;;;5.40;99.90;;;;;;4979177;28;20279;-64
2022/04/19 08:02:30;;;;;;;3.73;3.10;;;5.50;99.90;;;;;;4979521;28;20205;-64
2022/04/19 08:04:57;;;;;;;2.93;2.50;;;5.50;99.90;;;;;;4980404;28;20235;-67
2022/04/19 08:07:25;;;;;;;7.67;3.07;;;5.60;99.90;;;;;;4979527;28;20205;-65
2022/04/19 08:09:52;;;;;;;3.13;2.80;;;5.70;99.90;;;;;;4979913;28;20265;-65
2022/04/19 08:12:19;;;;;;;3.20;2.77;;;5.80;99.90;;;;;;4980317;28;20205;-65
2022/04/19 08:14:46;;;;;;;2.97;2.53;;;5.90;99.90;;;;;;4979630;28;20307;-65
2022/04/19 08:17:14;;;;;;;3.40;2.70;;;5.90;99.90;;;;;;4979025;28;20299;-64
2022/04/19 08:19:41;;;;;;;6.57;3.10;;;5.90;99.90;;;;;;4978645;28;20330;-65
2022/04/19 08:22:09;;;;;;;3.47;3.00;;;5.90;99.90;;;;;;4978891;28;20236;-64
2022/04/19 08:24:37;;;;;;;2.73;2.50;;;5.90;99.90;;;;;;4979393;28;20203;-64
2022/04/19 08:27:04;;;;;;;3.93;3.10;;;5.90;99.90;;;;;;4978821;28;20232;-64
2022/04/19 08:29:32;;;;;;;2.73;2.53;;;5.80;99.90;;;;;;4979101;28;20204;-65
2022/04/19 08:31:58;;;;;;;6.83;4.63;;;5.90;99.90;;;;;;4978762;28;20204;-65
2022/04/19 08:34:25;;;;;;;3.13;2.83;;;5.90;99.90;;;;;;4978182;28;20292;-65
2022/04/19 08:36:52;;;;;;;3.57;2.70;;;6.00;99.90;;;;;;4979377;28;20590;-63
2022/04/19 08:39:19;;;;;;;3.13;2.83;;;5.90;99.90;;;;;;4968717;28;20268;-66
2022/04/19 08:41:49;;;;;;;3.40;2.63;;;5.90;99.90;;;;;;4960188;29;20282;-67
2022/04/19 08:44:16;;;;;;;2.73;2.53;;;5.80;99.90;;;;;;4942969;29;20237;-65
2022/04/19 08:46:44;;;;;;;3.90;2.50;;;5.80;99.90;;;;;;4959784;29;20288;-66
2022/04/19 08:49:11;;;;;;;3.30;3.00;;;5.80;99.90;;;;;;4959382;29;20205;-65
2022/04/19 08:51:41;;;;;;;4.03;3.63;;;5.80;99.90;;;;;;4958736;28;20213;-65
2022/04/19 08:59:41;;;;;;;3.20;2.90;;;5.80;99.90;;;;;;4959279;29;20697;-64
2022/04/19 09:02:08;;;;;;;3.63;3.10;;;5.90;99.90;;;;;;4958529;29;20219;-64
2022/04/19 09:04:35;;;;;;;3.60;3.10;;;5.90;99.90;;;;;;4959213;29;20237;-64
2022/04/19 09:07:02;;;;;;;2.93;2.70;;;5.90;99.90;;;;;;4958774;29;20205;-64
2022/04/19 09:09:34;;;;;;;3.40;2.83;;;5.90;99.90;;;;;;4969942;28;20200;-65
2022/04/19 09:12:09;;;;;;;3.70;3.30;;;5.90;99.90;;;;;;4978892;28;20220;-66
2022/04/19 09:14:36;;;;;;;3.63;3.33;;;5.90;99.90;;;;;;4977956;28;20246;-65
2022/04/19 09:17:05;;;;;;;4.07;3.13;;;6.00;99.90;;;;;;4977581;28;20292;-65
2022/04/19 09:19:33;;;;;;;3.43;3.13;;;6.00;99.90;;;;;;4978140;28;20205;-66
2022/04/19 09:22:00;;;;;;;3.37;2.93;;;6.10;99.90;;;;;;4978366;28;20225;-65
2022/04/19 09:24:28;;;;;;;4.70;3.00;;;6.20;99.90;;;;;;4977636;28;20188;-65
2022/04/19 09:26:55;;;;;;;3.30;2.90;;;6.20;99.90;;;;;;4977796;28;20197;-64
2022/04/19 09:29:24;;;;;;;5.83;5.33;;;6.20;99.90;;;;;;4976952;28;20730;-65
2022/04/19 09:31:53;;;;;;;3.70;3.10;;;6.20;99.90;;;;;;4976306;28;20296;-65
2022/04/19 09:34:24;;;;;;;3.50;3.20;;;6.30;99.90;;;;;;4977456;28;20216;-66
2022/04/19 09:36:55;;;;;;;3.83;2.97;;;6.40;99.90;;;;;;4977745;28;20251;-66
2022/04/19 09:39:29;;;;;;;3.30;2.70;;;6.40;99.90;;;;;;4964724;28;20677;-65
2022/04/19 09:42:03;;;;;;;3.93;3.00;;;6.40;99.90;;;;;;4958838;28;20200;-65
2022/04/19 09:44:37;;;;;;;3.40;3.10;;;6.50;99.90;;;;;;4958496;29;20237;-64
2022/04/19 09:47:06;;;;;;;4.50;3.50;;;6.60;99.90;;;;;;4958985;29;20303;-65
2022/04/19 09:49:44;;;;;;;4.00;3.60;;;6.70;99.90;;;;;;4958348;29;20198;-65
2022/04/19 09:52:14;;;;;;;3.30;3.00;;;6.90;99.90;;;;;;4959014;29;20272;-64
2022/04/19 09:54:43;;;;;;;2.70;2.50;;;7.00;99.90;;;;;;4958388;29;20229;-67
2022/04/19 09:57:11;;;;;;;2.73;2.30;;;7.10;99.90;;;;;;4958241;29;20296;-66
2022/04/19 09:59:44;;;;;;;2.67;2.43;;;7.20;99.90;;;;;;4958029;29;20209;-65
2022/04/19 10:10:27;;;;;;;2.50;2.30;;;7.20;99.90;;;;;;4977647;28;20211;-66
2022/04/19 10:12:54;;;;;;;2.93;2.33;;;7.10;99.90;;;;;;4977621;28;20259;-67
2022/04/19 10:15:23;;;;;;;2.93;2.30;;;7.20;99.90;;;;;;4977058;28;20220;-65
2022/04/19 10:17:51;;;;;;;2.93;2.33;;;7.10;99.90;;;;;;4977240;28;20297;-65
2022/04/19 10:20:31;;;;;;;2.50;2.30;;;7.10;99.90;;;;;;4977176;28;20201;-65
2022/04/19 10:23:02;;;;;;;2.77;2.20;;;7.10;99.90;;;;;;4977155;28;20210;-65
2022/04/19 10:25:40;;;;;;;3.13;2.30;;;7.10;99.90;;;;;;4977075;28;20280;-65
2022/04/19 10:28:08;;;;;;;3.73;2.57;;;7.30;99.90;;;;;;4977693;28;20709;-66
2022/04/19 10:30:37;;;;;;;3.13;2.83;;;7.30;99.90;;;;;;4977251;28;20219;-64
2022/04/19 10:33:49;;;;;;;3.50;3.03;;;7.50;99.90;;;;;;4976568;28;20242;-66
2022/04/19 10:36:21;;;;;;;3.33;2.47;;;7.60;99.90;;;;;;4917584;29;20199;-66
2022/04/19 10:39:24;;;;;;;2.53;2.30;;;7.70;99.90;;;;;;4964817;28;20296;-65
2022/04/19 10:41:55;;;;;;;2.37;2.17;;;7.80;99.90;;;;;;4937948;29;20791;-65
2022/04/19 10:44:36;;;;;;;2.33;2.13;;;7.80;99.90;;;;;;4938740;29;20635;-66
2022/04/19 10:47:15;;;;;;;2.63;2.43;;;7.80;99.90;;;;;;4938218;29;20201;-66
2022/04/19 10:49:57;;;;;;;3.03;2.73;;;7.80;99.90;;;;;;4938262;29;20210;-65
2022/04/19 10:52:45;;;;;;;2.43;2.23;;;7.90;99.90;;;;;;4938796;29;20277;-66
2022/04/19 10:55:18;;;;;;;4.37;3.20;;;7.80;99.90;;;;;;4938315;29;20687;-65
2022/04/19 11:00:37;;;;;;;5.17;2.97;;;7.90;99.90;;;;;;4937753;29;20189;-66
2022/04/19 11:03:07;;;;;;;3.77;2.80;;;7.90;99.90;;;;;;4937608;29;20286;-64
2022/04/19 11:05:36;;;;;;;3.00;2.77;;;7.90;99.90;;;;;;4938324;29;20680;-65
2022/04/19 11:08:31;;;;;;;3.63;2.53;;;7.90;99.90;;;;;;4933840;29;20732;-65
2022/04/19 11:11:23;;;;;;;3.53;2.77;;;7.90;99.90;;;;;;4919172;29;20302;-65
2022/04/19 11:14:36;;;;;;;3.37;2.67;;;8.00;99.90;;;;;;4918731;29;20728;-65
2022/04/19 11:17:21;;;;;;;4.23;3.13;;;8.10;99.90;;;;;;4922487;29;20198;-65
2022/04/19 11:19:54;;;;;;;3.27;2.97;;;8.10;99.90;;;;;;4922185;29;20215;-63
2022/04/19 11:22:48;;;;;;;3.50;3.20;;;8.20;99.90;;;;;;4922072;29;20664;-67
2022/04/19 11:25:17;;;;;;;3.10;2.80;;;8.20;99.90;;;;;;4922685;29;20195;-66
2022/04/19 11:28:28;;;;;;;5.77;3.00;;;8.30;99.90;;;;;;4922936;29;20225;-65
2022/04/19 11:31:25;;;;;;;2.90;2.50;;;8.20;99.90;;;;;;4923867;29;20206;-65
2022/04/19 11:33:57;;;;;;;4.17;3.43;;;8.10;99.90;;;;;;4923030;29;20191;-65
2022/04/19 11:36:25;;;;;;;3.50;3.03;;;8.10;99.90;;;;;;4923008;29;20594;-66
2022/04/19 11:38:52;;;;;;;3.20;2.90;;;8.00;99.90;;;;;;4935143;28;20694;-65
2022/04/19 11:46:54;;;;;;;4.60;2.87;;;8.10;99.90;;;;;;4980408;28;20184;-66
2022/04/19 11:49:32;;;;;;;2.70;2.50;;;8.10;99.90;;;;;;4981643;28;20240;-66
2022/04/19 11:52:02;;;;;;;3.10;2.80;;;8.20;99.90;;;;;;4980252;28;20189;-65
2022/04/19 11:54:30;;;;;;;3.37;2.87;;;8.30;99.90;;;;;;4980184;28;20588;-65
2022/04/19 11:56:59;;;;;;;2.80;2.40;;;8.40;99.90;;;;;;4980029;28;20204;-65
2022/04/19 11:59:27;;;;;;;3.20;2.90;;;8.60;99.90;;;;;;4962421;28;20217;-65
2022/04/19 12:01:55;;;;;;;3.07;2.80;;;8.80;99.80;;;;;;4959635;29;20280;-65
2022/04/19 12:04:22;;;;;;;3.30;2.80;;;9.00;99.60;;;;;;4959980;29;20748;-65
2022/04/19 12:06:50;;;;;;;3.30;2.97;;;9.10;98.80;;;;;;4960415;29;20201;-64
2022/04/19 12:09:19;;;;;;;4.13;3.20;;;9.20;98.30;;;;;;4960158;29;20555;-65
2022/04/19 12:11:49;;;;;;;5.43;3.30;;;9.30;98.10;;;;;;4960613;29;20208;-66
2022/04/19 12:14:30;;;;;;;5.13;3.10;;;9.40;98.00;;;;;;4960672;29;20201;-66
2022/04/19 12:16:59;;;;;;;3.37;2.80;;;9.50;97.50;;;;;;4960377;29;20209;-66
2022/04/19 12:19:38;;;;;;;3.40;3.10;;;9.60;96.90;;;;;;4960517;29;20679;-65
2022/04/19 12:22:16;;;;;;;3.80;3.07;;;9.70;96.30;;;;;;4961119;29;20645;-66
2022/04/19 12:24:48;;;;;;;3.00;2.80;;;9.80;95.70;;;;;;4961238;29;20190;-66
2022/04/19 12:27:15;;;;;;;3.63;3.13;;;9.80;94.80;;;;;;4961607;28;20190;-65
2022/04/19 12:29:58;;;;;;;3.23;2.93;;;9.80;94.20;;;;;;4982581;28;20570;-67
2022/04/19 12:32:26;;;;;;;3.10;2.80;;;9.60;93.70;;;;;;4987446;28;20193;-67
2022/04/19 12:35:06;;;;;;;3.50;3.20;;;9.40;93.90;;;;;;4982967;28;20366;-67
2022/04/19 12:37:33;;;;;;;4.17;3.17;;;9.20;93.80;;;;;;4982945;28;20244;-65
2022/04/19 12:40:03;;;;;;;3.50;3.20;;;9.10;93.90;;;;;;4981787;28;20705;-67
2022/04/19 12:42:30;;;;;;;4.03;3.53;;;8.90;94.20;;;;;;4979158;28;20295;-66
2022/04/19 12:45:06;;;;;;;3.73;3.03;;;8.90;94.60;;;;;;4979153;28;20243;-66
2022/04/19 12:47:33;;;;;;;3.17;2.87;;;8.80;94.50;;;;;;4980578;28;20228;-66
2022/04/19 12:50:10;;;;;;;3.77;2.97;;;8.80;94.60;;;;;;4980120;28;20624;-65
2022/04/19 12:52:38;;;;;;;4.17;3.60;;;8.80;94.70;;;;;;4980072;28;20193;-65
2022/04/19 12:55:09;;;;;;;3.57;3.17;;;8.90;94.50;;;;;;4979642;28;20252;-65
2022/04/19 12:57:38;;;;;;;3.67;2.90;;;9.00;94.40;;;;;;4979934;28;20192;-65
2022/04/19 13:00:06;;;;;;;3.20;2.90;;;9.20;94.30;;;;;;4980743;28;20207;-65
2022/04/19 13:02:33;;;;;;;5.13;2.97;;;9.40;93.90;;;;;;4979238;28;20593;-65
2022/04/19 13:05:00;;;;;;;2.50;2.23;;;9.80;93.50;;;;;;4977980;28;20232;-65
2022/04/19 13:13:04;;;;;;;3.50;3.07;;;10.10;90.30;;;;;;4978441;28;20284;-64
2022/04/19 13:15:32;;;;;;;3.10;2.63;;;10.30;90.30;;;;;;4978187;28;20225;-66
2022/04/19 13:17:59;;;;;;;3.43;3.13;;;10.50;89.80;;;;;;4977850;28;20739;-66
2022/04/19 13:20:27;;;;;;;3.57;3.27;;;10.50;88.40;;;;;;4977837;28;20211;-65
2022/04/19 13:22:53;;;;;;;3.03;2.70;;;10.50;87.50;;;;;;4978422;28;20655;-66
2022/04/19 13:25:21;;;;;;;3.97;3.30;;;10.40;86.30;;;;;;4971315;28;20213;-65
2022/04/19 13:27:50;;;;;;;2.83;2.63;;;10.40;86.00;;;;;;4960333;28;20214;-65
2022/04/19 13:30:19;;;;;;;3.00;2.70;;;10.40;84.80;;;;;;4977675;28;20209;-67
2022/04/19 13:32:46;;;;;;;3.37;2.73;;;10.30;82.50;;;;;;4961712;28;20240;-65
2022/04/19 13:35:13;;;;;;;2.83;2.63;;;10.20;81.90;;;;;;4959182;29;20225;-66
2022/04/19 13:40:26;;;;;;;2.83;2.63;;;10.00;83.30;;;;;;4958527;28;20240;-66
2022/04/19 13:42:55;;;;;;;4.67;3.23;;;10.00;82.90;;;;;;4963094;28;20291;-65
2022/04/19 13:45:22;;;;;;;4.13;2.80;;;10.00;82.80;;;;;;4977763;28;20205;-66
2022/04/19 13:47:49;;;;;;;4.77;3.17;;;10.10;83.00;;;;;;4976527;28;20670;-66
2022/04/19 13:50:16;;;;;;;3.30;2.97;;;10.20;82.60;;;;;;4977989;28;20713;-66
2022/04/19 13:52:43;;;;;;;3.17;2.47;;;10.30;82.00;;;;;;4968051;28;20224;-69
2022/04/19 13:55:15;;;;;;;4.93;2.87;;;10.50;81.00;;;;;;4975427;28;20259;-67
2022/04/19 13:57:43;;;;;;;5.23;2.87;;;10.50;80.00;;;;;;4960602;28;20212;-66